KSTJ/STJ METAR and TAF weather

Enter ICAO airport designator
Station Type Date Time Source
KSTJ METAR 2020/09/26 11:53 UTC NOAA

KSTJ 261153Z AUTO 19010KT 10SM CLR 19/17 A2974 RMK AO2 SLP065 T01890167 10200 20189 56004


Station Type Date Time Source
KSTJ Decoded METAR 2020/09/26 11:53 UTC NOAA

ROSECRANS MEMORIAL AIRPORT, MO, United States (KSTJ) 39-46N 94-55W 247M
Sep 26, 2020 - 07:53 AM EDT / 2020.09.26 1153 UTC
Wind: from the S (190 degrees) at 12 MPH (10 KT):0
Visibility: 10 mile(s):0
Sky conditions: clear
Temperature: 66.0 F (18.9 C)
Dew Point: 62.1 F (16.7 C)
Relative Humidity: 87%
Pressure (altimeter): 29.74 in. Hg (1007 hPa)
Pressure tendency: 0.01 inches (0.4 hPa) lower than three hours ago
ob: KSTJ 261153Z AUTO 19010KT 10SM CLR 19/17 A2974 RMK AO2 SLP065 T01890167 10200 20189 56004
cycle: 12

Station Type Date Time Source
KSTJ TAF 2020/09/26 12:22 UTC NOAA

TAF KSTJ 261120Z 2612/2712 19010KT P6SM SKC
FM261500 19015G25KT P6SM FEW250
FM270300 20012KT P6SM FEW250 WS020/22040KT
FM270600 20012KT P6SM BKN040

Example: see airport list